Barranquilla, Colombia

11:28 PM COT en Julio 23, 2014 (GMT -0500)
Ernesto Cortissoz (SKBQ) Alt 98 ft | 10.88 °N, 74.78 °W | Change Station

Current weather conditions updated 28 minutes ago

Clear
Despejado
82 ° F
Sensación térmica 91 ° F
N
17
Viento Variable Viento desde Norte

Mañana se prevé una temperatura muy similar a la de hoy. Formación de tormentas por la tarde..

Hoy
Alta -- | Baja -- ° F
--% Posibilidad de precipitaciones
Ayer
Alta -- | Baja -- ° F
Precip. -- pul
5:45 AM 6:25 PM
Creciente menguante, 7% visible
Presión 29.78 pul
Visibilidad -9999.0 Millas
Nubes
Índice de calor 91 ° F
Punto de rocío 77 ° F
Humedad 84%
Precipitaciones 0.00 pul
Espesor de la nieve No disponible.
UV No disponible.
Polen No disponible.
Calidad del aire No disponible.
Flu Activity No disponible.
METAR SKBQ 240400Z 01015KT CAVOK 28/25 A2978

More Conditions Fewer Conditions

Presión 29.78 pul
Visibilidad -9999.0 Millas
Nubes
Índice de calor 91 ° F
Punto de rocío 77 ° F
Humedad 84%
Precipitaciones 0.00 pul
Espesor de la nieve No disponible.
UV No disponible.
Polen No disponible.
Calidad del aire No disponible.
Flu Activity No disponible.
METAR SKBQ 240400Z 01015KT CAVOK 28/25 A2978

More Conditions Fewer Conditions

10-Day Weather Forecast

Almanac

Astronomía

Jul. 23, 2014 Salida Puesta
Hora real 5:45 AM COT 6:25 PM COT
Crepúsculo civil 5:23 AM COT 6:47 PM COT
Crepúsculo náutico 4:56 AM COT 7:14 PM COT
Crepúsculo astronómico 4:29 AM COT 7:41 PM COT
Luna 2:59 AM COT (7/23) 3:54 PM COT (7/23)
Horas de luz 13h 24m
Horas de luz
12h 39m
Tomorrow will be 0m 24s shorter.
Creciente menguante, 7% of the Moon is Illuminated
Jul 24
Creciente menguante
Jul 26
Nueva
Ago 3
Cuarto creciente
Ago 10
Luna llena
Ago 17
Cuarto menguante

Extremos de hoy

Máximos del país Bajas del país

Community

WunderPhotos

Upload Photos

1,736,897 ¡fotos cargadas!

Nearby

Calidad del aire

Not available.

Grosos de nieve

Not available.

Actividad de terremotos

Ciudad Distance Mag. Tiempo y dato
No hay informes recientes de la actividad sísmica.
Magnitud mínima muestra es 2,5.

Temperaturas de aguas costeras

Lugar Temperatura
Sin partes meteorológicos de las estaciones

Estaciones meteorológicas cercanas

Ubicación de la estación Temp. Índice de calor Punto de rocío Humedad Viento Precip. Alt Actualizado Tipo
Santo Tomas, Santo Tomas 81.1 ° F 85 ° F 71 ° F 72% Norte  a  6.9 mph 0.00 pul / hr 108 ft 11:24 PM COT Rapid Fire

Show More Stations Show Fewer Stations